createdAt,value
2022-09-28T00:00:16.365Z,0.80
2022-09-28T00:02:47.135Z,0.70
2022-09-28T00:05:18.212Z,2.90
2022-09-28T00:07:49.233Z,0.90
2022-09-28T00:10:22.958Z,0.80
2022-09-28T00:12:55.505Z,0.50
2022-09-28T00:17:56.172Z,1.20
2022-09-28T00:20:26.856Z,0.70
2022-09-28T00:22:57.556Z,0.70
2022-09-28T00:25:28.208Z,0.60
2022-09-28T00:27:58.894Z,0.80
2022-09-28T00:30:29.557Z,0.80
2022-09-28T00:33:00.174Z,0.40
2022-09-28T00:35:31.077Z,0.70
2022-09-28T00:38:02.355Z,0.70
2022-09-28T00:40:33.069Z,0.50
2022-09-28T00:43:20.737Z,0.70
2022-09-28T00:45:56.809Z,0.60
2022-09-28T00:48:32.155Z,2.10
2022-09-28T00:51:06.796Z,0.70
2022-09-28T00:53:41.475Z,0.80
2022-09-28T00:56:19.186Z,1.00
2022-09-28T00:58:52.701Z,0.90
2022-09-28T01:01:23.641Z,0.60
2022-09-28T01:03:54.840Z,0.70
2022-09-28T01:06:29.070Z,2.00
2022-09-28T01:09:03.473Z,0.60
2022-09-28T01:11:36.414Z,1.10
2022-09-28T01:14:11.553Z,1.10
2022-09-28T01:16:50.327Z,0.50
2022-09-28T01:20:00.261Z,1.00
2022-09-28T01:22:48.775Z,1.20
2022-09-28T01:25:34.556Z,0.80
2022-09-28T01:28:10.459Z,4.10
2022-09-28T01:30:46.911Z,0.40
2022-09-28T01:33:23.655Z,0.70
2022-09-28T01:36:00.867Z,0.60
2022-09-28T01:38:35.999Z,0.70
2022-09-28T01:41:07.519Z,1.20
2022-09-28T01:43:43.788Z,1.70
2022-09-28T01:46:18.511Z,0.60
2022-09-28T01:48:56.024Z,0.40
2022-09-28T01:51:31.251Z,0.60
2022-09-28T01:54:07.529Z,0.60
2022-09-28T01:56:44.641Z,0.50
2022-09-28T01:59:19.925Z,0.60
2022-09-28T02:01:54.671Z,0.60
2022-09-28T02:04:29.679Z,0.60
2022-09-28T02:07:03.720Z,0.50
2022-09-28T02:09:41.507Z,1.30
2022-09-28T02:12:17.155Z,1.10
2022-09-28T02:14:51.050Z,0.20
2022-09-28T02:17:23.070Z,0.50
2022-09-28T02:19:54.063Z,0.30
2022-09-28T02:22:29.839Z,0.30
2022-09-28T02:25:04.434Z,0.60
2022-09-28T02:27:39.513Z,0.60
2022-09-28T02:30:12.207Z,1.40
2022-09-28T02:32:46.150Z,1.00
2022-09-28T02:35:19.595Z,0.90
2022-09-28T02:37:51.215Z,0.70
2022-09-28T02:40:25.993Z,1.40
2022-09-28T02:43:07.340Z,1.40
2022-09-28T02:45:53.098Z,1.00
2022-09-28T02:49:00.097Z,1.40
2022-09-28T02:51:47.086Z,1.90
2022-09-28T02:54:51.265Z,1.40
2022-09-28T02:57:35.564Z,1.50
2022-09-28T03:00:10.356Z,2.90
2022-09-28T03:02:50.981Z,0.60
2022-09-28T03:05:26.879Z,2.40
2022-09-28T03:08:01.121Z,2.00
2022-09-28T03:10:39.431Z,1.40
2022-09-28T03:13:12.328Z,0.50
2022-09-28T03:15:48.560Z,1.40
2022-09-28T03:18:20.065Z,4.10
2022-09-28T03:20:50.959Z,3.00
2022-09-28T03:23:25.556Z,1.20
2022-09-28T03:25:57.015Z,1.90
2022-09-28T03:28:28.232Z,0.70
2022-09-28T03:30:59.670Z,0.70
2022-09-28T03:33:30.454Z,1.80
2022-09-28T03:36:01.437Z,1.50
2022-09-28T03:38:34.195Z,1.10
2022-09-28T03:41:07.678Z,0.90
2022-09-28T03:43:39.302Z,0.60
2022-09-28T03:46:10.303Z,1.30
2022-09-28T03:48:44.924Z,3.00
2022-09-28T03:51:15.723Z,2.60
2022-09-28T03:53:46.439Z,3.80
2022-09-28T03:56:17.940Z,1.00
2022-09-28T03:58:48.513Z,2.40
2022-09-28T04:01:19.830Z,2.90
2022-09-28T04:03:54.263Z,5.50
2022-09-28T04:06:25.607Z,6.30
2022-09-28T04:08:56.479Z,3.90
2022-09-28T04:11:30.046Z,2.40
2022-09-28T04:14:06.024Z,1.80
2022-09-28T04:16:36.767Z,1.50
2022-09-28T04:19:17.196Z,2.00
2022-09-28T04:22:20.559Z,1.30
2022-09-28T04:24:51.379Z,5.70
2022-09-28T04:27:39.655Z,0.90
2022-09-28T04:30:12.804Z,2.00
2022-09-28T04:32:46.970Z,1.60
2022-09-28T04:35:17.735Z,2.00
2022-09-28T04:37:48.486Z,1.50
2022-09-28T04:40:19.644Z,1.20
2022-09-28T04:42:57.535Z,2.40
2022-09-28T04:45:28.753Z,2.00
2022-09-28T04:48:08.929Z,1.70
2022-09-28T04:50:59.991Z,2.50
2022-09-28T04:53:31.001Z,5.80
2022-09-28T04:56:04.931Z,3.80
2022-09-28T04:58:37.205Z,6.20
2022-09-28T05:01:10.431Z,3.90
2022-09-28T05:03:59.127Z,4.70
2022-09-28T05:06:48.475Z,5.20
2022-09-28T05:09:19.166Z,4.70
2022-09-28T05:11:53.658Z,7.40
2022-09-28T05:14:26.537Z,6.20
2022-09-28T05:16:57.323Z,8.10
2022-09-28T05:19:28.205Z,5.50
2022-09-28T05:22:06.202Z,3.00
2022-09-28T05:24:42.769Z,5.50
2022-09-28T05:27:13.479Z,8.10
2022-09-28T05:29:44.224Z,7.30
2022-09-28T05:32:33.385Z,6.60
2022-09-28T05:35:25.683Z,6.20
2022-09-28T05:37:56.381Z,6.30
2022-09-28T05:40:27.186Z,7.50
2022-09-28T05:43:02.230Z,5.80
2022-09-28T05:45:33.205Z,6.30
2022-09-28T05:48:04.436Z,5.30
2022-09-28T05:50:35.114Z,4.60
2022-09-28T05:53:08.180Z,4.50
2022-09-28T05:55:40.418Z,4.90
2022-09-28T05:58:11.319Z,7.10
2022-09-28T06:00:42.025Z,6.70
2022-09-28T06:03:15.206Z,5.00
2022-09-28T06:05:47.329Z,7.60
2022-09-28T06:08:18.220Z,6.70
2022-09-28T06:10:52.716Z,8.20
2022-09-28T06:13:23.395Z,8.70
2022-09-28T06:15:55.127Z,8.50
2022-09-28T06:18:25.815Z,7.90
2022-09-28T06:21:23.318Z,8.70
2022-09-28T06:23:54.288Z,7.60
2022-09-28T06:26:25.205Z,8.90
2022-09-28T06:28:55.834Z,7.70
2022-09-28T06:31:26.469Z,7.30
2022-09-28T06:34:01.862Z,8.00
2022-09-28T06:36:32.617Z,9.40
2022-09-28T06:39:03.174Z,7.30
2022-09-28T06:41:34.308Z,6.80
2022-09-28T06:44:15.635Z,7.80
2022-09-28T06:47:17.607Z,6.80
2022-09-28T06:50:20.427Z,6.90
2022-09-28T06:53:14.717Z,6.70
2022-09-28T06:56:01.371Z,5.50
2022-09-28T06:58:32.870Z,6.60
2022-09-28T07:01:05.749Z,5.60
2022-09-28T07:03:46.702Z,8.00
2022-09-28T07:06:31.579Z,6.30
2022-09-28T07:09:32.337Z,11.50
2022-09-28T07:12:25.241Z,6.30
2022-09-28T07:14:58.534Z,3.80
2022-09-28T07:17:38.433Z,4.90
2022-09-28T07:20:19.202Z,3.20
2022-09-28T07:22:56.110Z,3.40
2022-09-28T07:25:30.151Z,5.90
2022-09-28T07:28:11.628Z,4.00
2022-09-28T07:30:51.160Z,4.80
2022-09-28T07:33:41.893Z,5.40
2022-09-28T07:36:21.024Z,5.10
2022-09-28T07:38:52.218Z,4.10
2022-09-28T07:41:32.516Z,5.60
2022-09-28T07:44:06.584Z,5.20
2022-09-28T07:46:39.123Z,4.50
2022-09-28T07:49:16.762Z,5.70
2022-09-28T07:52:16.890Z,5.00
2022-09-28T07:55:10.588Z,5.50
2022-09-28T07:58:07.209Z,4.30
2022-09-28T08:00:51.246Z,4.00
2022-09-28T08:03:23.056Z,6.40
2022-09-28T08:05:58.438Z,7.50
2022-09-28T08:08:30.256Z,5.20
2022-09-28T08:11:02.265Z,5.30
2022-09-28T08:13:55.448Z,5.20
2022-09-28T08:16:48.509Z,6.60
2022-09-28T08:20:05.190Z,4.70
2022-09-28T08:22:36.135Z,5.50
2022-09-28T08:25:09.036Z,6.70
2022-09-28T08:27:40.381Z,5.30
2022-09-28T08:30:13.011Z,5.40
2022-09-28T08:33:03.854Z,4.30
2022-09-28T08:35:47.159Z,4.50
2022-09-28T08:38:38.174Z,4.20
2022-09-28T08:41:39.503Z,4.50
2022-09-28T08:44:44.513Z,8.00
2022-09-28T08:47:47.365Z,6.50
2022-09-28T08:50:39.812Z,6.20
2022-09-28T08:53:43.555Z,4.20
2022-09-28T08:56:31.910Z,5.50
2022-09-28T08:59:09.587Z,2.40
2022-09-28T09:01:45.857Z,4.10
2022-09-28T09:07:27.278Z,2.90
2022-09-28T09:10:48.204Z,4.30
2022-09-28T09:13:45.858Z,4.30
2022-09-28T09:16:28.219Z,3.50
2022-09-28T09:19:42.032Z,1.90
2022-09-28T09:22:37.672Z,1.30
2022-09-28T09:25:19.298Z,1.90
2022-09-28T09:28:08.971Z,1.50
2022-09-28T09:30:49.607Z,2.40
2022-09-28T09:33:48.696Z,0.80
2022-09-28T09:37:08.012Z,1.20
2022-09-28T09:40:16.490Z,2.70
2022-09-28T09:43:43.600Z,2.50
2022-09-28T09:46:57.364Z,2.20
2022-09-28T09:49:45.173Z,1.10
2022-09-28T09:52:24.056Z,2.20
2022-09-28T09:55:00.998Z,2.00
2022-09-28T09:57:56.989Z,3.20
2022-09-28T10:01:00.598Z,1.90
2022-09-28T10:03:52.881Z,2.30
2022-09-28T10:06:31.916Z,0.70
2022-09-28T10:09:06.204Z,2.60
2022-09-28T10:11:42.119Z,2.90
2022-09-28T10:14:17.568Z,2.20
2022-09-28T10:16:58.786Z,2.20
2022-09-28T10:19:52.088Z,1.30
2022-09-28T10:22:38.481Z,0.60
2022-09-28T10:25:16.042Z,0.80
2022-09-28T10:27:52.494Z,1.90
2022-09-28T10:30:25.390Z,0.60
2022-09-28T10:35:42.386Z,1.60
2022-09-28T10:38:20.115Z,1.30
2022-09-28T10:40:55.926Z,0.90
2022-09-28T10:44:06.338Z,2.60
2022-09-28T10:47:02.990Z,1.60
2022-09-28T10:49:47.032Z,0.70
2022-09-28T10:52:37.445Z,2.00
2022-09-28T10:55:30.646Z,2.90
2022-09-28T10:58:01.919Z,1.90
2022-09-28T11:00:43.482Z,2.60
2022-09-28T11:03:28.383Z,2.90
2022-09-28T11:06:05.139Z,2.10
2022-09-28T11:08:41.531Z,0.80
2022-09-28T11:11:14.916Z,0.60
2022-09-28T11:13:49.045Z,2.80
2022-09-28T11:16:29.438Z,1.80
2022-09-28T11:19:05.863Z,1.20
2022-09-28T11:21:46.176Z,2.00
2022-09-28T11:24:27.074Z,1.60
2022-09-28T11:27:01.051Z,4.00
2022-09-28T11:29:42.882Z,2.10
2022-09-28T11:32:27.305Z,1.60
2022-09-28T11:35:24.062Z,1.30
2022-09-28T11:38:14.373Z,1.00
2022-09-28T11:41:18.502Z,4.00
2022-09-28T11:44:08.492Z,1.70
2022-09-28T11:46:47.844Z,2.30
2022-09-28T11:49:32.948Z,2.90
2022-09-28T11:52:09.298Z,5.30
2022-09-28T11:54:45.428Z,1.90
2022-09-28T11:57:21.854Z,1.90
2022-09-28T12:00:00.031Z,1.60
2022-09-28T12:02:37.240Z,0.80
2022-09-28T12:05:22.018Z,2.10
2022-09-28T12:07:56.783Z,1.00
2022-09-28T12:10:52.720Z,1.00
2022-09-28T12:13:31.579Z,0.80
2022-09-28T12:16:32.293Z,0.60
2022-09-28T12:19:03.511Z,0.50
2022-09-28T12:21:43.844Z,0.80
2022-09-28T12:24:24.245Z,0.60
2022-09-28T12:27:01.442Z,1.00
2022-09-28T12:29:38.995Z,1.40
2022-09-28T12:32:17.496Z,1.00
2022-09-28T12:37:31.964Z,3.10
2022-09-28T12:40:23.532Z,4.80
2022-09-28T12:43:07.684Z,1.70
2022-09-28T12:46:10.861Z,1.60
2022-09-28T12:49:56.367Z,2.00
2022-09-28T12:51:59.960Z,2.00
2022-09-28T12:54:53.334Z,0.80
2022-09-28T12:57:37.689Z,1.00
2022-09-28T13:00:12.947Z,1.30
2022-09-28T13:03:01.271Z,0.90
2022-09-28T13:06:09.942Z,0.70
2022-09-28T13:08:53.224Z,1.40
2022-09-28T13:11:33.144Z,0.70
2022-09-28T13:14:26.185Z,0.60
2022-09-28T13:17:04.718Z,0.90
2022-09-28T13:19:43.472Z,2.30
2022-09-28T13:22:29.298Z,1.10
2022-09-28T13:25:05.811Z,1.80
2022-09-28T13:27:40.553Z,1.30
2022-09-28T13:30:19.438Z,2.80
2022-09-28T13:32:51.508Z,2.00
2022-09-28T13:35:22.955Z,1.00
2022-09-28T13:38:35.670Z,1.10
2022-09-28T13:41:19.699Z,2.00
2022-09-28T13:44:13.165Z,0.80
2022-09-28T13:46:53.030Z,2.10
2022-09-28T13:49:32.590Z,0.90
2022-09-28T13:52:10.632Z,0.50
2022-09-28T13:54:57.804Z,0.80
2022-09-28T13:57:38.456Z,0.70
2022-09-28T14:00:21.803Z,1.00
2022-09-28T14:03:00.694Z,1.80
2022-09-28T14:06:04.574Z,0.80
2022-09-28T14:08:39.066Z,2.40
2022-09-28T14:11:43.702Z,1.50
2022-09-28T14:14:52.727Z,2.90
2022-09-28T14:18:14.142Z,0.50
2022-09-28T14:20:55.031Z,0.80
2022-09-28T14:23:54.217Z,0.90
2022-09-28T14:26:50.323Z,0.80
2022-09-28T14:29:29.264Z,2.20
2022-09-28T14:32:05.256Z,3.20
2022-09-28T14:34:39.766Z,2.10
2022-09-28T14:37:40.595Z,2.50
2022-09-28T14:40:39.855Z,0.90
2022-09-28T14:43:26.778Z,0.90
2022-09-28T14:46:27.098Z,3.00
2022-09-28T14:49:01.813Z,0.90
2022-09-28T14:52:03.435Z,0.90
2022-09-28T14:54:53.397Z,1.50
2022-09-28T14:57:30.047Z,2.70
2022-09-28T15:00:01.863Z,0.90
2022-09-28T15:02:38.477Z,0.70
2022-09-28T15:05:20.785Z,0.50
2022-09-28T15:07:53.741Z,0.60
2022-09-28T15:10:33.917Z,1.10
2022-09-28T15:13:16.710Z,0.80
2022-09-28T15:15:51.172Z,0.80
2022-09-28T15:19:01.461Z,0.60
2022-09-28T15:21:40.824Z,1.50
2022-09-28T15:24:30.588Z,1.00
2022-09-28T15:27:02.615Z,1.30
2022-09-28T15:29:34.072Z,1.10
2022-09-28T15:32:05.247Z,1.00
2022-09-28T15:34:54.486Z,0.80
2022-09-28T15:37:29.102Z,0.70
2022-09-28T15:40:01.838Z,0.70
2022-09-28T15:42:38.027Z,1.00
2022-09-28T15:45:25.441Z,0.60
2022-09-28T15:48:16.156Z,1.70
2022-09-28T15:53:28.478Z,1.20
2022-09-28T15:56:09.714Z,2.20
2022-09-28T15:58:44.843Z,2.50
2022-09-28T16:01:28.367Z,3.00
2022-09-28T16:04:01.859Z,1.30
2022-09-28T16:06:32.564Z,1.20
2022-09-28T16:09:03.336Z,1.30
2022-09-28T16:11:40.630Z,1.20
2022-09-28T16:14:23.196Z,1.20
2022-09-28T16:16:55.225Z,1.10
2022-09-28T16:19:29.506Z,1.60
2022-09-28T16:22:03.142Z,1.50
2022-09-28T16:24:36.459Z,1.60
2022-09-28T16:27:09.767Z,1.80
2022-09-28T16:29:45.082Z,1.40
2022-09-28T16:32:41.703Z,2.50
2022-09-28T16:35:22.562Z,2.80
2022-09-28T16:38:00.088Z,1.10
2022-09-28T16:40:32.280Z,1.70
2022-09-28T16:43:06.876Z,1.00
2022-09-28T16:45:38.852Z,4.40
2022-09-28T16:48:10.959Z,5.80
2022-09-28T16:50:41.697Z,1.50
2022-09-28T16:53:35.454Z,1.10
2022-09-28T16:56:07.943Z,1.70
2022-09-28T16:58:39.167Z,2.60
2022-09-28T17:01:12.676Z,2.00
2022-09-28T17:03:46.828Z,2.80
2022-09-28T17:06:19.090Z,3.10
2022-09-28T17:08:49.720Z,2.30
2022-09-28T17:11:24.658Z,3.80
2022-09-28T17:13:59.034Z,2.70
2022-09-28T17:17:02.348Z,3.20
2022-09-28T17:19:25.705Z,2.10
2022-09-28T17:24:25.579Z,2.40
2022-09-28T17:26:56.911Z,3.30
2022-09-28T17:29:27.951Z,4.50
2022-09-28T17:31:58.579Z,3.60
2022-09-28T17:34:29.312Z,2.90
2022-09-28T17:37:00.045Z,4.80
2022-09-28T17:39:31.909Z,2.20
2022-09-28T17:42:02.587Z,4.40
2022-09-28T17:44:33.320Z,2.90
2022-09-28T17:47:04.241Z,2.80
2022-09-28T17:49:34.998Z,2.30
2022-09-28T17:52:05.906Z,3.00
2022-09-28T17:54:36.861Z,2.00
2022-09-28T17:57:07.538Z,5.50
2022-09-28T17:59:38.195Z,2.60
2022-09-28T18:02:10.659Z,2.80
2022-09-28T18:04:51.732Z,3.60
2022-09-28T18:07:23.289Z,2.40
2022-09-28T18:09:58.219Z,2.80
2022-09-28T18:12:29.162Z,3.00
2022-09-28T18:14:59.826Z,3.00
2022-09-28T18:17:30.435Z,2.10
2022-09-28T18:20:01.358Z,3.60
2022-09-28T18:22:32.100Z,2.80
2022-09-28T18:25:03.217Z,5.60
2022-09-28T18:27:35.095Z,10.10
2022-09-28T18:30:07.600Z,3.70
2022-09-28T18:32:39.088Z,4.40
2022-09-28T18:35:11.979Z,4.00
2022-09-28T18:37:42.991Z,3.90
2022-09-28T18:40:15.312Z,3.90
2022-09-28T18:42:45.932Z,3.00
2022-09-28T18:45:17.293Z,3.50
2022-09-28T18:47:48.303Z,2.20
2022-09-28T18:50:19.040Z,4.90
2022-09-28T18:52:49.801Z,5.90
2022-09-28T18:55:20.575Z,5.00
2022-09-28T18:57:51.471Z,2.80
2022-09-28T19:00:22.273Z,4.50
2022-09-28T19:02:53.417Z,2.70
2022-09-28T19:05:24.164Z,3.50
2022-09-28T19:07:55.104Z,3.40
2022-09-28T19:10:25.835Z,5.20
2022-09-28T19:12:56.491Z,3.40
2022-09-28T19:15:27.091Z,15.80
2022-09-28T19:17:58.143Z,4.20
2022-09-28T19:20:28.831Z,4.80
2022-09-28T19:22:59.910Z,5.40
2022-09-28T19:25:30.707Z,4.40
2022-09-28T19:28:01.517Z,4.70
2022-09-28T19:30:32.249Z,4.20
2022-09-28T19:33:02.963Z,4.70
2022-09-28T19:35:33.757Z,5.20
2022-09-28T19:38:04.381Z,5.80
2022-09-28T19:40:37.534Z,4.40
2022-09-28T19:43:08.336Z,6.00
2022-09-28T19:45:39.807Z,4.10
2022-09-28T19:48:10.538Z,4.30
2022-09-28T19:50:41.808Z,4.20
2022-09-28T19:53:12.562Z,5.20
2022-09-28T19:55:43.279Z,5.80
2022-09-28T19:58:16.428Z,7.20
2022-09-28T20:00:47.217Z,5.40
2022-09-28T20:03:18.531Z,4.10
2022-09-28T20:05:49.398Z,5.20
2022-09-28T20:08:21.880Z,6.60
2022-09-28T20:10:54.546Z,6.90
2022-09-28T20:15:56.451Z,4.80
2022-09-28T20:18:27.506Z,3.90
2022-09-28T20:21:05.257Z,5.40
2022-09-28T20:23:36.752Z,3.80
2022-09-28T20:26:09.156Z,3.20
2022-09-28T20:28:40.775Z,7.00
2022-09-28T20:31:14.382Z,5.60
2022-09-28T20:33:45.595Z,4.90
2022-09-28T20:36:17.624Z,6.60
2022-09-28T20:38:50.057Z,5.40
2022-09-28T20:41:22.994Z,7.60
2022-09-28T20:43:57.619Z,5.10
2022-09-28T20:46:30.355Z,4.70
2022-09-28T20:49:01.357Z,7.90
2022-09-28T20:51:32.540Z,8.00
2022-09-28T20:54:03.180Z,5.30
2022-09-28T20:56:37.840Z,6.60
2022-09-28T20:59:11.268Z,5.60
2022-09-28T21:01:43.129Z,5.20
2022-09-28T21:04:14.082Z,5.00
2022-09-28T21:06:45.216Z,6.60
2022-09-28T21:09:16.024Z,5.60
2022-09-28T21:11:48.150Z,4.80
2022-09-28T21:14:18.889Z,5.40
2022-09-28T21:16:49.725Z,4.50
2022-09-28T21:19:20.592Z,5.40
2022-09-28T21:21:51.229Z,4.80
2022-09-28T21:24:21.790Z,7.20
2022-09-28T21:26:52.420Z,7.00
2022-09-28T21:29:23.060Z,9.30
2022-09-28T21:31:53.742Z,5.40
2022-09-28T21:34:25.205Z,4.50
2022-09-28T21:36:55.894Z,4.30
2022-09-28T21:39:26.557Z,4.60
2022-09-28T21:41:57.137Z,4.30
2022-09-28T21:44:27.957Z,4.80
2022-09-28T21:46:58.756Z,5.60
2022-09-28T21:49:29.442Z,5.40
2022-09-28T21:52:00.086Z,4.70
2022-09-28T21:54:30.839Z,4.00
2022-09-28T21:57:02.011Z,4.70
2022-09-28T21:59:32.701Z,4.10
2022-09-28T22:02:04.854Z,5.90
2022-09-28T22:04:35.737Z,5.70
2022-09-28T22:07:06.436Z,3.90
2022-09-28T22:09:37.054Z,4.70
2022-09-28T22:12:08.293Z,4.80
2022-09-28T22:14:39.281Z,4.30
2022-09-28T22:17:09.897Z,3.90
2022-09-28T22:19:41.727Z,6.80
2022-09-28T22:22:12.340Z,3.90
2022-09-28T22:24:43.040Z,4.30
2022-09-28T22:27:15.470Z,4.80
2022-09-28T22:29:46.132Z,6.20
2022-09-28T22:32:16.799Z,3.00
2022-09-28T22:34:47.470Z,4.70
2022-09-28T22:37:19.222Z,5.30
2022-09-28T22:39:49.807Z,4.10
2022-09-28T22:42:20.703Z,4.00
2022-09-28T22:44:51.273Z,4.50
2022-09-28T22:47:21.912Z,4.50
2022-09-28T22:49:52.659Z,3.30
2022-09-28T22:52:23.449Z,4.60
2022-09-28T22:54:54.132Z,5.60
2022-09-28T22:57:24.745Z,4.80
2022-09-28T22:59:55.357Z,4.60
2022-09-28T23:02:26.078Z,5.40
2022-09-28T23:04:56.867Z,6.30
2022-09-28T23:07:27.566Z,6.60
2022-09-28T23:10:00.580Z,5.30
2022-09-28T23:12:33.333Z,6.30
2022-09-28T23:17:32.926Z,5.00
2022-09-28T23:20:04.414Z,5.00
2022-09-28T23:22:35.247Z,3.90
2022-09-28T23:25:06.653Z,4.60
2022-09-28T23:27:37.432Z,5.20
2022-09-28T23:30:10.397Z,7.20
2022-09-28T23:32:41.236Z,5.10
2022-09-28T23:35:13.024Z,5.10
2022-09-28T23:37:43.796Z,8.00
2022-09-28T23:40:14.592Z,5.30
2022-09-28T23:42:45.176Z,4.10
2022-09-28T23:45:16.212Z,5.00
2022-09-28T23:47:46.956Z,4.80
2022-09-28T23:50:18.258Z,4.90
2022-09-28T23:52:50.275Z,6.80
2022-09-28T23:55:20.976Z,6.30
2022-09-28T23:57:55.470Z,8.70
